Montreal / St-Lazare Airport

METAR CYUL TAF CYUL
1 °C
°C
-
°C
43m
Age
05:43:17
LT
04:43
UTC
0 ft

2,000

4,000

6,000

8,000

10,000

FEW 3,000
OVC 6,500
VFR
<?= Yii::t('app', 'Wind direction') ?> <?= Yii::t('app', 'of'); ?>
250°
07:06
Sunrise
87%
Humidity
Wind shear
Closed/Snow
RWY visual range
RWY condition
Vert. visibility
Min. visibility
CAVOK
Trend
Correction
Special report
29.86 inHg
QNH
METAR CYUL 080400Z 25010KT 12SM FEW030 OVC065 01/M01 A2986 RMK SC2SC6 SLP116
Overcast
8 kt
8 kt
23:00
VFR
10 kt
00:00
VFR
10 kt
01:00
VFR
10 kt
02:00
VFR
10 kt
03:00
VFR
10 kt
04:00
VFR
10 kt
05:00
VFR
12 kt
12 mi
Visibility
6,500 ft
Ceiling
10 kt
Wind
metar-taf.com/CST3

Metar-Taf.com

Visual decoder

We and third parties follow your internet behavior on our website with cookies. If you continue, we assume you agree with our cookie policy.